Time;durP1;ratioP1;P1;durP2;ratioP2;P2;SDS_P1;SDS_P2;PMS_P1;PMS_P2;Temp;Humidity;BMP_temperature;BMP_pressure;BME280_temperature;BME280_humidity;BME280_pressure;Samples;Min_cycle;Max_cycle;Signal;HPM_P1;HPM_P2
2023/07/29 00:00:21;;;;;;;;;;;;;;;;;;4998909;28;19930;-79
2023/07/29 00:02:54;;;;;;;;;;;;;;;;;;5015214;28;19937;-79
2023/07/29 00:05:26;;;;;;;;;;;;;;;;;;4981872;28;20404;-79
2023/07/29 00:07:59;;;;;;;;;;;;;;;;;;4985211;28;20371;-79
2023/07/29 00:10:26;;;;;;;;;;;;;;;;;;4984372;28;19930;-78
2023/07/29 00:12:59;;;;;;;;;;;;;;;;;;4981475;28;20395;-79
2023/07/29 00:15:31;;;;;;;;;;;;;;;;;;5006585;28;20389;-79
2023/07/29 00:17:59;;;;;;;;;;;;;;;;;;5014254;28;19942;-79
2023/07/29 00:20:32;;;;;;;;;;;;;;;;;;4984415;28;20468;-78
2023/07/29 00:22:59;;;;;;;;;;;;;;;;;;4982199;28;19934;-79
2023/07/29 00:25:27;;;;;;;;;;;;;;;;;;4982876;28;19930;-78
2023/07/29 00:27:54;;;;;;;;;;;;;;;;;;4981981;28;19933;-79
2023/07/29 00:30:22;;;;;;;;;;;;;;;;;;4979531;28;19926;-79
2023/07/29 00:32:49;;;;;;;;;;;;;;;;;;5004355;28;19941;-79
2023/07/29 00:35:22;;;;;;;;;;;;;;;;;;4996332;28;19932;-79
2023/07/29 00:37:49;;;;;;;;;;;;;;;;;;4982695;28;19934;-79
2023/07/29 00:40:17;;;;;;;;;;;;;;;;;;4981220;28;19931;-79
2023/07/29 00:42:44;;;;;;;;;;;;;;;;;;4997166;28;20564;-79
2023/07/29 00:45:17;;;;;;;;;;;;;;;;;;5016744;28;20295;-79
2023/07/29 00:47:50;;;;;;;;;;;;;;;;;;4984504;28;19941;-79
2023/07/29 00:50:22;;;;;;;;;;;;;;;;;;5004260;28;20445;-79
2023/07/29 00:52:50;;;;;;;;;;;;;;;;;;4995722;28;19933;-79
2023/07/29 00:55:18;;;;;;;;;;;;;;;;;;4981759;28;19926;-78
2023/07/29 00:57:48;;;;;;;;;;;;;;;;;;4998502;28;20383;-79
2023/07/29 01:00:16;;;;;;;;;;;;;;;;;;5011339;28;19929;-79
2023/07/29 01:02:48;;;;;;;;;;;;;;;;;;5013262;28;19948;-79
2023/07/29 01:05:16;;;;;;;;;;;;;;;;;;4996778;28;19934;-79
2023/07/29 01:07:49;;;;;;;;;;;;;;;;;;4981220;28;19933;-79
2023/07/29 01:10:16;;;;;;;;;;;;;;;;;;4982366;28;19925;-79
2023/07/29 01:12:45;;;;;;;;;;;;;;;;;;4979285;28;20416;-79
2023/07/29 01:15:18;;;;;;;;;;;;;;;;;;4981592;28;19926;-79
2023/07/29 01:17:50;;;;;;;;;;;;;;;;;;4982222;28;19936;-79
2023/07/29 01:20:23;;;;;;;;;;;;;;;;;;4987719;28;19934;-79
2023/07/29 01:22:51;;;;;;;;;;;;;;;;;;4996331;28;19941;-79
2023/07/29 01:25:23;;;;;;;;;;;;;;;;;;5012678;28;19930;-79
2023/07/29 01:27:56;;;;;;;;;;;;;;;;;;4979693;28;19937;-79
2023/07/29 01:30:23;;;;;;;;;;;;;;;;;;5014219;28;20483;-79
2023/07/29 01:32:56;;;;;;;;;;;;;;;;;;4984941;28;19980;-79
2023/07/29 01:35:29;;;;;;;;;;;;;;;;;;5004891;28;19930;-79
2023/07/29 01:37:56;;;;;;;;;;;;;;;;;;4982399;28;19937;-79
2023/07/29 01:40:24;;;;;;;;;;;;;;;;;;4977435;28;19926;-79
2023/07/29 01:42:51;;;;;;;;;;;;;;;;;;4981695;28;19930;-80
2023/07/29 01:45:19;;;;;;;;;;;;;;;;;;4996798;28;20899;-79
2023/07/29 01:47:52;;;;;;;;;;;;;;;;;;4992450;28;20493;-79
2023/07/29 01:50:21;;;;;;;;;;;;;;;;;;4996633;28;19934;-80
2023/07/29 01:52:48;;;;;;;;;;;;;;;;;;4984014;28;19929;-80
2023/07/29 01:55:21;;;;;;;;;;;;;;;;;;4986796;28;19949;-79
2023/07/29 01:57:49;;;;;;;;;;;;;;;;;;4992583;28;20290;-79
2023/07/29 02:00:16;;;;;;;;;;;;;;;;;;4987028;28;19926;-79
2023/07/29 02:02:45;;;;;;;;;;;;;;;;;;5010290;28;20681;-79
2023/07/29 02:05:13;;;;;;;;;;;;;;;;;;4995564;28;19933;-79
2023/07/29 02:07:40;;;;;;;;;;;;;;;;;;5011037;28;19937;-79
2023/07/29 02:10:08;;;;;;;;;;;;;;;;;;5000366;28;19933;-79
2023/07/29 02:12:36;;;;;;;;;;;;;;;;;;4996846;28;20448;-79
2023/07/29 02:15:03;;;;;;;;;;;;;;;;;;5010531;28;19937;-79
2023/07/29 02:17:31;;;;;;;;;;;;;;;;;;4980717;28;19937;-79
2023/07/29 02:19:58;;;;;;;;;;;;;;;;;;5000168;28;20402;-80
2023/07/29 02:22:31;;;;;;;;;;;;;;;;;;4986360;28;19930;-79
2023/07/29 02:24:59;;;;;;;;;;;;;;;;;;4995376;28;19926;-79
2023/07/29 02:27:27;;;;;;;;;;;;;;;;;;4981712;28;19937;-79
2023/07/29 02:30:00;;;;;;;;;;;;;;;;;;4977403;28;19937;-79
2023/07/29 02:32:28;;;;;;;;;;;;;;;;;;4981272;28;19926;-79
2023/07/29 02:34:55;;;;;;;;;;;;;;;;;;4995552;28;20293;-79
2023/07/29 02:37:28;;;;;;;;;;;;;;;;;;5011920;28;19929;-79
2023/07/29 02:40:00;;;;;;;;;;;;;;;;;;5013141;28;20346;-79
2023/07/29 02:42:29;;;;;;;;;;;;;;;;;;5013429;28;20386;-79
2023/07/29 02:45:01;;;;;;;;;;;;;;;;;;4983107;28;19930;-79
2023/07/29 02:47:29;;;;;;;;;;;;;;;;;;5010417;28;19945;-79
2023/07/29 02:49:56;;;;;;;;;;;;;;;;;;5009907;28;19930;-79
2023/07/29 02:52:29;;;;;;;;;;;;;;;;;;4983955;28;19925;-78
2023/07/29 02:54:57;;;;;;;;;;;;;;;;;;4993611;28;19937;-78
2023/07/29 02:57:24;;;;;;;;;;;;;;;;;;5011405;28;19930;-79
2023/07/29 02:59:52;;;;;;;;;;;;;;;;;;4996916;28;19938;-79
2023/07/29 03:02:19;;;;;;;;;;;;;;;;;;4978727;28;19937;-81
2023/07/29 03:04:47;;;;;;;;;;;;;;;;;;4997091;28;19937;-81
2023/07/29 03:07:14;;;;;;;;;;;;;;;;;;4994699;28;19932;-82
2023/07/29 03:09:42;;;;;;;;;;;;;;;;;;5002888;28;19937;-81
2023/07/29 03:12:09;;;;;;;;;;;;;;;;;;4995785;28;19933;-81
2023/07/29 03:14:37;;;;;;;;;;;;;;;;;;5003057;28;19953;-81
2023/07/29 03:17:05;;;;;;;;;;;;;;;;;;4996484;28;19926;-81
2023/07/29 03:19:37;;;;;;;;;;;;;;;;;;5007144;28;19941;-81
2023/07/29 03:22:05;;;;;;;;;;;;;;;;;;4998377;28;19934;-81
2023/07/29 03:24:32;;;;;;;;;;;;;;;;;;5006842;28;19937;-81
2023/07/29 03:27:05;;;;;;;;;;;;;;;;;;5018007;28;19926;-81
2023/07/29 03:29:32;;;;;;;;;;;;;;;;;;4987805;28;19934;-81
2023/07/29 03:32:05;;;;;;;;;;;;;;;;;;5016083;28;19933;-81
2023/07/29 03:34:38;;;;;;;;;;;;;;;;;;5016122;28;19930;-81
2023/07/29 03:37:05;;;;;;;;;;;;;;;;;;4998562;28;19926;-81
2023/07/29 03:39:38;;;;;;;;;;;;;;;;;;4982386;28;19927;-81
2023/07/29 03:42:06;;;;;;;;;;;;;;;;;;5007061;28;19936;-81
2023/07/29 03:44:39;;;;;;;;;;;;;;;;;;5018574;28;19937;-81
2023/07/29 03:47:06;;;;;;;;;;;;;;;;;;5014538;28;19930;-81
2023/07/29 03:49:34;;;;;;;;;;;;;;;;;;5012540;28;19937;-81
2023/07/29 03:52:07;;;;;;;;;;;;;;;;;;5017537;28;19929;-81
2023/07/29 03:54:35;;;;;;;;;;;;;;;;;;4983057;28;19929;-81
2023/07/29 03:57:02;;;;;;;;;;;;;;;;;;4983921;28;19937;-81
2023/07/29 03:59:30;;;;;;;;;;;;;;;;;;4995197;28;19930;-81
2023/07/29 04:01:57;;;;;;;;;;;;;;;;;;4998517;28;20291;-81
2023/07/29 04:04:30;;;;;;;;;;;;;;;;;;5016492;28;19933;-80
2023/07/29 04:07:02;;;;;;;;;;;;;;;;;;4984067;28;19941;-81
2023/07/29 04:09:30;;;;;;;;;;;;;;;;;;5001706;28;19929;-80
2023/07/29 04:12:02;;;;;;;;;;;;;;;;;;4988565;28;19937;-81
2023/07/29 04:14:30;;;;;;;;;;;;;;;;;;5015011;28;20407;-80
2023/07/29 04:16:57;;;;;;;;;;;;;;;;;;4996106;28;19938;-80
2023/07/29 04:19:30;;;;;;;;;;;;;;;;;;5013316;28;19934;-80
2023/07/29 04:21:58;;;;;;;;;;;;;;;;;;5014358;28;19926;-80
2023/07/29 04:24:30;;;;;;;;;;;;;;;;;;5014976;28;19937;-80
2023/07/29 04:27:03;;;;;;;;;;;;;;;;;;4981775;28;20291;-81
2023/07/29 04:29:30;;;;;;;;;;;;;;;;;;5003501;28;19930;-80
2023/07/29 04:31:58;;;;;;;;;;;;;;;;;;5014407;28;19929;-80
2023/07/29 04:34:25;;;;;;;;;;;;;;;;;;4981331;28;19929;-80
2023/07/29 04:36:58;;;;;;;;;;;;;;;;;;5000065;28;19932;-80
2023/07/29 04:39:26;;;;;;;;;;;;;;;;;;4997357;28;19930;-80
2023/07/29 04:41:53;;;;;;;;;;;;;;;;;;5005465;28;19936;-80
2023/07/29 04:44:26;;;;;;;;;;;;;;;;;;4988419;28;19930;-80
2023/07/29 04:46:53;;;;;;;;;;;;;;;;;;4999001;28;19950;-80
2023/07/29 04:49:26;;;;;;;;;;;;;;;;;;5013559;28;19937;-81
2023/07/29 04:51:58;;;;;;;;;;;;;;;;;;4984027;28;19930;-79
2023/07/29 04:54:31;;;;;;;;;;;;;;;;;;4981981;28;20502;-80
2023/07/29 04:56:58;;;;;;;;;;;;;;;;;;4988479;28;19930;-80
2023/07/29 04:59:31;;;;;;;;;;;;;;;;;;4983393;28;19929;-80
2023/07/29 05:01:58;;;;;;;;;;;;;;;;;;4997219;28;19930;-81
2023/07/29 05:04:31;;;;;;;;;;;;;;;;;;4985102;28;19930;-80
2023/07/29 05:06:58;;;;;;;;;;;;;;;;;;4983685;28;20371;-80
2023/07/29 05:09:31;;;;;;;;;;;;;;;;;;4988729;28;19926;-80
2023/07/29 05:11:59;;;;;;;;;;;;;;;;;;4998189;28;19937;-80
2023/07/29 05:14:26;;;;;;;;;;;;;;;;;;5005528;28;20816;-81
2023/07/29 05:16:55;;;;;;;;;;;;;;;;;;5002820;28;19953;-80
2023/07/29 05:19:22;;;;;;;;;;;;;;;;;;4995972;28;20714;-80
2023/07/29 05:21:50;;;;;;;;;;;;;;;;;;5002154;28;19936;-80
2023/07/29 05:24:17;;;;;;;;;;;;;;;;;;4989410;28;19930;-81
2023/07/29 05:26:45;;;;;;;;;;;;;;;;;;4983635;28;19933;-81
2023/07/29 05:29:12;;;;;;;;;;;;;;;;;;4997334;28;19938;-80
2023/07/29 05:31:40;;;;;;;;;;;;;;;;;;4983621;28;20386;-81
2023/07/29 05:34:08;;;;;;;;;;;;;;;;;;4988637;28;19937;-80
2023/07/29 05:36:36;;;;;;;;;;;;;;;;;;5014352;28;19926;-81
2023/07/29 05:39:08;;;;;;;;;;;;;;;;;;4986692;28;19940;-80
2023/07/29 05:41:36;;;;;;;;;;;;;;;;;;4978951;28;19937;-81
2023/07/29 05:44:09;;;;;;;;;;;;;;;;;;5015575;28;20306;-81
2023/07/29 05:46:41;;;;;;;;;;;;;;;;;;4983561;28;19937;-80
2023/07/29 05:49:10;;;;;;;;;;;;;;;;;;4999604;28;19937;-80
2023/07/29 05:51:46;;;;;;;;;;;;;;;;;;5015360;28;19930;-81
2023/07/29 05:54:19;;;;;;;;;;;;;;;;;;4987411;28;19937;-81
2023/07/29 05:56:46;;;;;;;;;;;;;;;;;;5013516;28;20406;-81
2023/07/29 05:59:14;;;;;;;;;;;;;;;;;;4980115;28;19926;-81
2023/07/29 06:01:46;;;;;;;;;;;;;;;;;;5014055;28;20342;-81
2023/07/29 06:04:14;;;;;;;;;;;;;;;;;;4987758;28;19929;-81
2023/07/29 06:06:47;;;;;;;;;;;;;;;;;;4997386;28;19926;-81
2023/07/29 06:09:14;;;;;;;;;;;;;;;;;;4982581;28;19926;-80
2023/07/29 06:11:47;;;;;;;;;;;;;;;;;;5012469;28;19933;-80
2023/07/29 06:14:15;;;;;;;;;;;;;;;;;;4981609;28;20280;-80
2023/07/29 06:16:42;;;;;;;;;;;;;;;;;;4984185;28;19936;-81
2023/07/29 06:19:10;;;;;;;;;;;;;;;;;;4993874;28;19937;-80
2023/07/29 06:21:37;;;;;;;;;;;;;;;;;;4996601;28;19926;-80
2023/07/29 06:24:05;;;;;;;;;;;;;;;;;;4987337;28;19949;-81
2023/07/29 06:26:37;;;;;;;;;;;;;;;;;;5000417;28;19933;-81
2023/07/29 06:29:10;;;;;;;;;;;;;;;;;;4980413;28;19933;-80
2023/07/29 06:31:37;;;;;;;;;;;;;;;;;;4995697;28;20470;-80
2023/07/29 06:34:10;;;;;;;;;;;;;;;;;;4982350;28;19936;-81
2023/07/29 06:36:37;;;;;;;;;;;;;;;;;;4980268;28;20549;-80
2023/07/29 06:39:05;;;;;;;;;;;;;;;;;;4980685;28;19933;-80
2023/07/29 06:41:33;;;;;;;;;;;;;;;;;;4982146;28;19930;-80
2023/07/29 06:44:03;;;;;;;;;;;;;;;;;;5012785;28;19930;-80
2023/07/29 06:46:31;;;;;;;;;;;;;;;;;;4983178;28;20397;-80
2023/07/29 06:48:58;;;;;;;;;;;;;;;;;;4980040;28;20003;-80
2023/07/29 06:51:34;;;;;;;;;;;;;;;;;;4981174;28;19930;-81
2023/07/29 06:54:07;;;;;;;;;;;;;;;;;;4983098;28;19934;-80
2023/07/29 06:56:34;;;;;;;;;;;;;;;;;;5003515;28;19930;-80
2023/07/29 06:59:02;;;;;;;;;;;;;;;;;;5011958;28;19926;-80
2023/07/29 07:01:29;;;;;;;;;;;;;;;;;;4983262;28;19925;-81
2023/07/29 07:04:02;;;;;;;;;;;;;;;;;;4981276;28;19930;-82
2023/07/29 07:06:29;;;;;;;;;;;;;;;;;;4996771;28;20318;-81
2023/07/29 07:08:57;;;;;;;;;;;;;;;;;;4982193;28;19926;-81
2023/07/29 07:11:25;;;;;;;;;;;;;;;;;;4999576;28;19933;-81
2023/07/29 07:13:52;;;;;;;;;;;;;;;;;;4996687;28;19953;-81
2023/07/29 07:16:20;;;;;;;;;;;;;;;;;;4998551;28;20726;-82
2023/07/29 07:18:48;;;;;;;;;;;;;;;;;;4981654;28;20298;-81
2023/07/29 07:21:15;;;;;;;;;;;;;;;;;;4995859;28;19930;-81
2023/07/29 07:23:48;;;;;;;;;;;;;;;;;;5013948;28;19940;-81
2023/07/29 07:26:15;;;;;;;;;;;;;;;;;;4980715;28;20394;-81
2023/07/29 07:28:43;;;;;;;;;;;;;;;;;;5003425;28;19941;-81
2023/07/29 07:31:16;;;;;;;;;;;;;;;;;;4980156;28;19941;-81
2023/07/29 07:33:48;;;;;;;;;;;;;;;;;;4978737;28;20679;-81
2023/07/29 07:36:21;;;;;;;;;;;;;;;;;;4981238;28;19941;-81
2023/07/29 07:38:53;;;;;;;;;;;;;;;;;;4985723;28;19930;-81
2023/07/29 07:41:21;;;;;;;;;;;;;;;;;;4985892;28;19929;-81
2023/07/29 07:43:48;;;;;;;;;;;;;;;;;;5011191;28;19929;-81
2023/07/29 07:46:16;;;;;;;;;;;;;;;;;;4997938;28;20556;-81
2023/07/29 07:48:44;;;;;;;;;;;;;;;;;;4982091;28;19937;-81
2023/07/29 07:51:11;;;;;;;;;;;;;;;;;;4981457;28;19930;-81
2023/07/29 07:53:40;;;;;;;;;;;;;;;;;;4980919;28;19937;-80
2023/07/29 07:56:07;;;;;;;;;;;;;;;;;;4997337;28;19934;-81
2023/07/29 07:58:40;;;;;;;;;;;;;;;;;;4981175;28;19937;-81
2023/07/29 08:01:12;;;;;;;;;;;;;;;;;;4977899;28;19930;-81
2023/07/29 08:03:45;;;;;;;;;;;;;;;;;;4980951;28;20418;-80
2023/07/29 08:06:12;;;;;;;;;;;;;;;;;;4986455;28;19931;-80
2023/07/29 08:08:40;;;;;;;;;;;;;;;;;;4999877;28;19937;-80
2023/07/29 08:11:07;;;;;;;;;;;;;;;;;;4982447;28;19934;-81
2023/07/29 08:13:35;;;;;;;;;;;;;;;;;;5015608;28;19934;-81
2023/07/29 08:16:02;;;;;;;;;;;;;;;;;;4980778;28;19930;-81
2023/07/29 08:18:35;;;;;;;;;;;;;;;;;;4983431;28;20268;-80
2023/07/29 08:21:04;;;;;;;;;;;;;;;;;;4989045;28;19926;-80
2023/07/29 08:23:32;;;;;;;;;;;;;;;;;;5013658;28;19936;-80
2023/07/29 08:26:01;;;;;;;;;;;;;;;;;;4981909;28;19941;-82
2023/07/29 08:28:29;;;;;;;;;;;;;;;;;;4993135;28;19929;-79
2023/07/29 08:30:57;;;;;;;;;;;;;;;;;;4983176;28;19926;-80
2023/07/29 08:33:29;;;;;;;;;;;;;;;;;;4984106;28;19930;-81
2023/07/29 08:36:02;;;;;;;;;;;;;;;;;;4988023;28;19937;-82
2023/07/29 08:38:29;;;;;;;;;;;;;;;;;;4985223;28;19937;-81
2023/07/29 08:40:57;;;;;;;;;;;;;;;;;;5012109;28;19926;-81
2023/07/29 08:43:29;;;;;;;;;;;;;;;;;;4981671;28;19937;-80
2023/07/29 08:46:02;;;;;;;;;;;;;;;;;;4986501;28;19949;-81
2023/07/29 08:48:29;;;;;;;;;;;;;;;;;;4983529;28;19930;-82
2023/07/29 08:51:02;;;;;;;;;;;;;;;;;;4997328;28;19967;-80
2023/07/29 08:53:30;;;;;;;;;;;;;;;;;;4982929;28;19936;-80
2023/07/29 08:55:57;;;;;;;;;;;;;;;;;;4983238;28;20398;-81
2023/07/29 08:58:30;;;;;;;;;;;;;;;;;;4985533;28;19941;-81
2023/07/29 09:01:02;;;;;;;;;;;;;;;;;;4985240;28;19930;-82
2023/07/29 09:03:35;;;;;;;;;;;;;;;;;;4980107;28;20883;-80
2023/07/29 09:06:02;;;;;;;;;;;;;;;;;;4983068;28;20285;-80
2023/07/29 09:08:30;;;;;;;;;;;;;;;;;;5003324;28;19930;-80
2023/07/29 09:10:57;;;;;;;;;;;;;;;;;;4988797;28;19929;-80
2023/07/29 09:13:30;;;;;;;;;;;;;;;;;;5015943;28;19930;-81
2023/07/29 09:16:03;;;;;;;;;;;;;;;;;;4981824;28;19937;-81
2023/07/29 09:18:30;;;;;;;;;;;;;;;;;;4997804;28;19929;-81
2023/07/29 09:21:03;;;;;;;;;;;;;;;;;;4982572;28;19925;-80
2023/07/29 09:23:31;;;;;;;;;;;;;;;;;;4983359;28;20370;-80
2023/07/29 09:26:03;;;;;;;;;;;;;;;;;;4982802;28;19933;-80
2023/07/29 09:28:31;;;;;;;;;;;;;;;;;;4982769;28;19934;-80
2023/07/29 09:31:03;;;;;;;;;;;;;;;;;;4983373;28;19929;-80
2023/07/29 09:33:32;;;;;;;;;;;;;;;;;;4982783;28;19930;-80
2023/07/29 09:36:04;;;;;;;;;;;;;;;;;;4986895;28;19930;-79
2023/07/29 09:38:32;;;;;;;;;;;;;;;;;;5013413;28;19929;-79
2023/07/29 09:40:59;;;;;;;;;;;;;;;;;;4981617;28;19937;-79
2023/07/29 09:43:27;;;;;;;;;;;;;;;;;;5013134;28;19937;-79
2023/07/29 09:45:55;;;;;;;;;;;;;;;;;;5002511;28;19960;-81
2023/07/29 09:48:28;;;;;;;;;;;;;;;;;;5014435;28;20397;-80
2023/07/29 09:50:56;;;;;;;;;;;;;;;;;;4984431;28;19930;-80
2023/07/29 09:53:24;;;;;;;;;;;;;;;;;;4984207;28;19925;-79
2023/07/29 09:55:51;;;;;;;;;;;;;;;;;;4984494;28;19933;-80
2023/07/29 09:58:19;;;;;;;;;;;;;;;;;;4979345;28;19934;-80
2023/07/29 10:00:46;;;;;;;;;;;;;;;;;;4983363;28;19929;-80
2023/07/29 10:06:15;;;;;;;;;;;;;;;;;;4987073;28;20438;-82
2023/07/29 10:08:43;;;;;;;;;;;;;;;;;;4982435;28;19937;-86
2023/07/29 10:11:12;;;;;;;;;;;;;;;;;;4999844;28;20463;-84
2023/07/29 10:13:40;;;;;;;;;;;;;;;;;;4982784;28;19938;-83
2023/07/29 10:16:12;;;;;;;;;;;;;;;;;;4986643;28;19937;-85
2023/07/29 10:18:45;;;;;;;;;;;;;;;;;;4987703;28;19930;-84
2023/07/29 10:21:12;;;;;;;;;;;;;;;;;;4999137;28;20362;-83
2023/07/29 10:23:40;;;;;;;;;;;;;;;;;;4981908;28;20191;-83
2023/07/29 10:26:12;;;;;;;;;;;;;;;;;;4996347;28;19929;-83
2023/07/29 10:28:40;;;;;;;;;;;;;;;;;;5002204;28;19936;-83
2023/07/29 10:31:07;;;;;;;;;;;;;;;;;;5010232;28;20386;-84
2023/07/29 10:33:35;;;;;;;;;;;;;;;;;;4983907;28;19937;-85
2023/07/29 10:36:02;;;;;;;;;;;;;;;;;;4983904;28;19926;-85
2023/07/29 10:38:35;;;;;;;;;;;;;;;;;;4982513;28;19930;-82
2023/07/29 10:41:02;;;;;;;;;;;;;;;;;;5012198;28;19934;-85
2023/07/29 10:43:35;;;;;;;;;;;;;;;;;;4982586;28;19937;-84
2023/07/29 10:46:03;;;;;;;;;;;;;;;;;;4984280;28;19937;-86
2023/07/29 10:48:30;;;;;;;;;;;;;;;;;;4994785;28;20301;-83
2023/07/29 10:51:03;;;;;;;;;;;;;;;;;;4983633;28;20569;-84
2023/07/29 10:53:30;;;;;;;;;;;;;;;;;;4981514;28;19937;-83
2023/07/29 10:55:58;;;;;;;;;;;;;;;;;;4981403;28;19933;-82
2023/07/29 10:58:31;;;;;;;;;;;;;;;;;;4981895;28;19936;-83
2023/07/29 11:00:58;;;;;;;;;;;;;;;;;;4980964;28;19926;-84
2023/07/29 11:03:28;;;;;;;;;;;;;;;;;;4980368;28;19930;-79
2023/07/29 11:05:56;;;;;;;;;;;;;;;;;;4977969;28;19930;-84
2023/07/29 11:08:24;;;;;;;;;;;;;;;;;;4996354;28;19941;-84
2023/07/29 11:10:56;;;;;;;;;;;;;;;;;;5011673;28;19926;-83
2023/07/29 11:13:29;;;;;;;;;;;;;;;;;;4986542;28;19933;-83
2023/07/29 11:15:58;;;;;;;;;;;;;;;;;;4978796;28;20402;-85
2023/07/29 11:18:25;;;;;;;;;;;;;;;;;;4977358;28;20445;-82
2023/07/29 11:20:58;;;;;;;;;;;;;;;;;;4995728;28;20919;-85
2023/07/29 11:23:26;;;;;;;;;;;;;;;;;;4979302;28;20413;-84
2023/07/29 11:25:58;;;;;;;;;;;;;;;;;;4983736;28;19932;-87
2023/07/29 11:28:26;;;;;;;;;;;;;;;;;;5003818;28;19930;-85
2023/07/29 11:30:58;;;;;;;;;;;;;;;;;;4982136;28;19926;-86
2023/07/29 11:33:27;;;;;;;;;;;;;;;;;;4982521;28;19930;-84
2023/07/29 11:35:55;;;;;;;;;;;;;;;;;;4982282;28;19929;-84
2023/07/29 11:38:21;;;;;;;;;;;;;;;;;;4980012;28;19942;-87
2023/07/29 11:40:49;;;;;;;;;;;;;;;;;;4985673;28;19926;-83
2023/07/29 11:43:21;;;;;;;;;;;;;;;;;;4999699;28;20049;-86
2023/07/29 11:45:54;;;;;;;;;;;;;;;;;;4988103;28;19930;-84
2023/07/29 11:48:26;;;;;;;;;;;;;;;;;;4983708;28;20299;-85
2023/07/29 11:50:54;;;;;;;;;;;;;;;;;;5000184;28;19930;-86
2023/07/29 11:53:27;;;;;;;;;;;;;;;;;;4984763;28;19930;-86
2023/07/29 11:55:54;;;;;;;;;;;;;;;;;;4999160;28;20409;-85
2023/07/29 11:58:27;;;;;;;;;;;;;;;;;;5000023;28;19926;-87
2023/07/29 12:00:59;;;;;;;;;;;;;;;;;;4983771;28;19925;-87
2023/07/29 12:03:27;;;;;;;;;;;;;;;;;;4998319;28;19933;-85
2023/07/29 12:05:59;;;;;;;;;;;;;;;;;;4986156;28;19930;-86
2023/07/29 12:08:27;;;;;;;;;;;;;;;;;;4984026;28;19933;-86
2023/07/29 12:10:55;;;;;;;;;;;;;;;;;;4983785;28;19926;-84
2023/07/29 12:13:27;;;;;;;;;;;;;;;;;;5014214;28;19926;-85
2023/07/29 12:15:55;;;;;;;;;;;;;;;;;;4985454;28;19937;-85
2023/07/29 12:18:27;;;;;;;;;;;;;;;;;;5015655;28;19933;-85
2023/07/29 12:21:00;;;;;;;;;;;;;;;;;;4986151;28;19929;-83
2023/07/29 12:23:27;;;;;;;;;;;;;;;;;;4984181;28;19933;-84
2023/07/29 12:25:55;;;;;;;;;;;;;;;;;;5003269;28;19932;-84
2023/07/29 12:28:27;;;;;;;;;;;;;;;;;;5014657;28;20351;-85
2023/07/29 12:31:00;;;;;;;;;;;;;;;;;;4983956;28;19930;-86
2023/07/29 12:33:27;;;;;;;;;;;;;;;;;;4999568;28;20394;-82
2023/07/29 12:36:00;;;;;;;;;;;;;;;;;;5012381;28;19937;-85
2023/07/29 12:38:28;;;;;;;;;;;;;;;;;;5000123;28;19930;-83
2023/07/29 12:41:00;;;;;;;;;;;;;;;;;;4988600;28;20393;-83
2023/07/29 12:43:28;;;;;;;;;;;;;;;;;;4981899;28;19930;-85
2023/07/29 12:46:00;;;;;;;;;;;;;;;;;;5005464;28;20574;-86
2023/07/29 12:48:33;;;;;;;;;;;;;;;;;;4982808;28;20285;-87
2023/07/29 12:51:05;;;;;;;;;;;;;;;;;;5013129;28;19933;-85
2023/07/29 12:53:33;;;;;;;;;;;;;;;;;;4996519;28;19926;-86
2023/07/29 12:56:05;;;;;;;;;;;;;;;;;;4983569;28;19937;-86
2023/07/29 12:58:38;;;;;;;;;;;;;;;;;;4983512;28;19933;-85
2023/07/29 13:01:13;;;;;;;;;;;;;;;;;;4981761;28;19941;-85
2023/07/29 13:03:40;;;;;;;;;;;;;;;;;;5012433;28;19957;-84
2023/07/29 13:06:13;;;;;;;;;;;;;;;;;;4980887;28;19930;-86
2023/07/29 13:08:45;;;;;;;;;;;;;;;;;;4982205;28;19930;-85
2023/07/29 13:11:13;;;;;;;;;;;;;;;;;;4987592;28;19936;-84
2023/07/29 13:13:40;;;;;;;;;;;;;;;;;;4983234;28;19929;-82
2023/07/29 13:16:08;;;;;;;;;;;;;;;;;;4974868;28;19930;-85
2023/07/29 13:18:36;;;;;;;;;;;;;;;;;;5014043;28;19930;-86
2023/07/29 13:21:03;;;;;;;;;;;;;;;;;;4998844;28;19937;-85
2023/07/29 13:23:36;;;;;;;;;;;;;;;;;;4994844;28;19941;-85
2023/07/29 13:28:20;;;;;;;7.07;4.10;;;;;;;22.96;100.00;99840.44;5055067;27;20895;-86
2023/07/29 13:30:53;;;;;;;6.37;3.80;;;;;;;23.11;100.00;99844.91;5033859;28;20898;-82
2023/07/29 13:33:26;;;;;;;6.17;4.10;;;;;;;22.89;100.00;99836.44;5038091;28;21195;-85
2023/07/29 13:35:55;;;;;;;7.27;3.60;;;;;;;22.75;100.00;99845.44;5014179;28;20438;-86
2023/07/29 13:38:28;;;;;;;6.03;3.80;;;;;;;22.71;100.00;99846.59;5015020;28;20433;-84
2023/07/29 13:41:01;;;;;;;6.97;3.40;;;;;;;22.59;100.00;99850.44;5012017;28;20440;-87
2023/07/29 13:43:35;;;;;;;8.95;3.20;;;;;;;22.05;100.00;99853.44;5012253;28;20439;-83
2023/07/29 13:46:09;;;;;;;6.72;3.67;;;;;;;22.45;100.00;99853.09;5019603;28;20397;-83
2023/07/29 13:48:42;;;;;;;8.25;5.60;;;;;;;22.98;100.00;99849.16;5033726;28;20416;-83
2023/07/29 13:51:15;;;;;;;6.00;3.58;;;;;;;22.87;100.00;99854.63;5015765;28;20424;-79
2023/07/29 13:53:43;;;;;;;4.93;3.20;;;;;;;22.81;100.00;99862.50;4979640;28;20445;-79
2023/07/29 13:56:16;;;;;;;5.88;2.90;;;;;;;22.60;100.00;99857.59;4978365;28;20437;-81
2023/07/29 13:58:46;;;;;;;5.55;3.10;;;;;;;22.64;100.00;99855.63;4968438;28;20972;-80
2023/07/29 14:01:14;;;;;;;5.07;3.28;;;;;;;22.83;100.00;99862.13;4972077;28;20917;-80
2023/07/29 14:03:42;;;;;;;5.35;2.78;;;;;;;22.73;100.00;99861.66;4964260;28;20508;-80
2023/07/29 14:06:11;;;;;;;5.07;2.65;;;;;;;22.67;100.00;99860.41;4967931;28;20456;-82
2023/07/29 14:08:44;;;;;;;19.17;13.90;;;;;;;22.65;100.00;99859.19;4970338;28;20441;-81
2023/07/29 14:11:12;;;;;;;9.18;5.40;;;;;;;22.36;100.00;99856.19;4969248;28;20445;-79
2023/07/29 14:13:40;;;;;;;5.38;3.15;;;;;;;22.23;100.00;99856.41;4970058;28;20787;-81
2023/07/29 14:16:10;;;;;;;4.78;2.70;;;;;;;22.18;100.00;99867.00;4986319;28;20444;-80
2023/07/29 14:18:43;;;;;;;4.20;2.70;;;;;;;22.24;100.00;99865.50;4971628;28;20432;-79
2023/07/29 14:21:16;;;;;;;4.45;2.60;;;;;;;22.31;100.00;99867.56;4974390;28;20473;-77
2023/07/29 14:23:49;;;;;;;4.93;2.88;;;;;;;22.61;100.00;99859.19;4968682;28;20434;-78
2023/07/29 14:26:23;;;;;;;3.95;2.50;;;;;;;22.32;100.00;99858.88;4971528;28;20441;-81
2023/07/29 14:28:56;;;;;;;6.23;2.80;;;;;;;22.61;100.00;99855.59;4975468;28;20433;-79
2023/07/29 14:31:32;;;;;;;4.43;2.60;;;;;;;22.65;100.00;99859.19;4967561;28;22137;-81
2023/07/29 14:34:00;;;;;;;4.03;2.50;;;;;;;22.85;100.00;99866.13;4971006;28;21030;-82
2023/07/29 14:36:33;;;;;;;4.60;2.67;;;;;;;23.02;100.00;99864.69;4971478;28;21035;-80
2023/07/29 14:39:06;;;;;;;6.28;3.03;;;;;;;23.13;100.00;99864.78;4968585;28;20445;-80
2023/07/29 14:41:35;;;;;;;3.72;2.38;;;;;;;23.04;100.00;99870.63;4957953;28;20430;-79
2023/07/29 14:44:08;;;;;;;3.75;2.20;;;;;;;23.02;100.00;99873.00;4955460;28;20435;-80
2023/07/29 14:46:43;;;;;;;3.45;2.28;;;;;;;22.61;100.00;99869.47;4954248;28;20437;-85
2023/07/29 14:49:11;;;;;;;4.93;2.60;;;;;;;22.44;100.00;99868.13;4954890;28;20439;-82
2023/07/29 14:51:39;;;;;;;4.87;2.40;;;;;;;22.65;100.00;99862.78;4963826;28;20442;-82
2023/07/29 14:54:12;;;;;;;3.93;2.30;;;;;;;22.81;100.00;99850.63;4957307;28;20446;-79
2023/07/29 14:56:46;;;;;;;4.60;2.40;;;;;;;22.56;100.00;99859.53;4959110;28;20508;-79
2023/07/29 14:59:19;;;;;;;6.20;2.40;;;;;;;22.46;100.00;99846.38;4954710;28;20439;-78
2023/07/29 15:01:48;;;;;;;4.05;2.33;;;;;;;22.63;100.00;99851.25;4947374;28;20433;-82
2023/07/29 15:04:21;;;;;;;3.90;2.28;;;;;;;22.84;100.00;99853.44;4949828;28;20430;-80
2023/07/29 15:06:55;;;;;;;5.63;2.50;;;;;;;23.04;100.00;99851.22;4953223;28;20441;-79
2023/07/29 15:09:28;;;;;;;4.32;2.53;;;;;;;23.05;100.00;99841.72;4953394;28;20418;-79
2023/07/29 15:12:01;;;;;;;4.35;2.50;;;;;;;23.06;100.00;99850.81;4956071;28;20437;-82
2023/07/29 15:14:29;;;;;;;4.13;2.50;;;;;;;23.02;100.00;99852.78;4951054;28;21179;-80
2023/07/29 15:17:04;;;;;;;4.40;2.60;;;;;;;23.07;100.00;99855.97;4961689;28;20438;-82
2023/07/29 15:19:32;;;;;;;4.20;2.47;;;;;;;23.05;100.00;99863.91;4979414;28;21106;-86
2023/07/29 15:22:06;;;;;;;5.28;2.40;;;;;;;22.75;100.00;99861.28;4956483;28;20426;-78
2023/07/29 15:24:42;;;;;;;4.78;2.60;;;;;;;22.46;100.00;99865.78;4960069;28;20536;-78
2023/07/29 15:27:15;;;;;;;5.65;2.70;;;;;;;22.71;100.00;99857.69;4954188;28;20472;-79
2023/07/29 15:29:49;;;;;;;6.07;2.60;;;;;;;22.81;100.00;99859.75;4947365;28;20464;-80
2023/07/29 15:32:24;;;;;;;4.22;2.70;;;;;;;22.51;100.00;99870.94;4959361;28;20449;-82
2023/07/29 15:34:57;;;;;;;5.05;2.72;;;;;;;22.25;100.00;99875.44;4955675;28;20441;-79
2023/07/29 15:37:31;;;;;;;5.05;2.90;;;;;;;22.02;100.00;99872.78;4951505;28;20434;-81
2023/07/29 15:40:06;;;;;;;5.20;2.80;;;;;;;21.93;100.00;99873.09;4957748;28;20434;-84
2023/07/29 15:42:39;;;;;;;4.23;2.80;;;;;;;21.77;100.00;99876.03;4955860;28;20492;-84
2023/07/29 15:45:08;;;;;;;4.27;2.60;;;;;;;21.72;100.00;99879.94;4951367;28;20433;-81
2023/07/29 15:47:38;;;;;;;5.68;2.67;;;;;;;21.82;100.00;99878.47;4958235;28;20957;-81
2023/07/29 15:50:07;;;;;;;5.65;2.42;;;;;;;21.80;100.00;99878.06;4952833;28;20459;-79
2023/07/29 15:52:35;;;;;;;3.65;2.47;;;;;;;22.18;100.00;99878.09;4949818;28;20442;-78
2023/07/29 15:55:04;;;;;;;5.20;2.78;;;;;;;22.45;100.00;99869.72;4958083;28;20418;-78
2023/07/29 15:57:37;;;;;;;6.07;2.63;;;;;;;22.54;100.00;99861.91;4960882;28;20449;-80